createdAt,value
2023-05-14T00:00:26.022Z,8.70
2023-05-14T00:03:14.594Z,6.30
2023-05-14T00:05:42.919Z,8.50
2023-05-14T00:08:10.983Z,9.00
2023-05-14T00:10:39.086Z,8.80
2023-05-14T00:13:07.225Z,10.60
2023-05-14T00:15:35.550Z,9.70
2023-05-14T00:18:04.168Z,10.20
2023-05-14T00:20:32.372Z,12.40
2023-05-14T00:23:01.363Z,18.10
2023-05-14T00:25:29.863Z,19.00
2023-05-14T00:27:57.912Z,27.20
2023-05-14T00:30:26.035Z,26.70
2023-05-14T00:32:55.011Z,26.90
2023-05-14T00:35:23.359Z,29.10
2023-05-14T00:37:51.634Z,26.80
2023-05-14T00:40:21.234Z,26.40
2023-05-14T00:42:49.936Z,27.40
2023-05-14T00:45:18.210Z,21.50
2023-05-14T00:47:46.823Z,25.50
2023-05-14T00:50:16.914Z,16.60
2023-05-14T00:52:45.594Z,17.80
2023-05-14T00:55:16.684Z,18.10
2023-05-14T00:57:45.630Z,13.30
2023-05-14T01:00:14.328Z,17.40
2023-05-14T01:02:42.562Z,15.50
2023-05-14T01:05:11.279Z,18.90
2023-05-14T01:07:48.665Z,15.10
2023-05-14T01:10:52.691Z,12.00
2023-05-14T01:13:26.627Z,18.00
2023-05-14T01:15:57.888Z,11.00
2023-05-14T01:18:28.305Z,13.40
2023-05-14T01:20:56.541Z,11.70
2023-05-14T01:23:25.434Z,14.20
2023-05-14T01:25:53.469Z,12.10
2023-05-14T01:28:33.151Z,10.80
2023-05-14T01:31:12.376Z,13.90
2023-05-14T01:33:43.477Z,11.10
2023-05-14T01:36:12.206Z,13.50
2023-05-14T01:38:45.714Z,11.90
2023-05-14T01:41:15.670Z,10.50
2023-05-14T01:43:45.153Z,10.40
2023-05-14T01:46:13.224Z,10.20
2023-05-14T01:48:41.595Z,14.10
2023-05-14T01:51:10.015Z,8.80
2023-05-14T01:53:38.643Z,12.80
2023-05-14T01:56:07.246Z,10.70
2023-05-14T01:58:35.413Z,9.10
2023-05-14T02:01:03.715Z,10.20
2023-05-14T02:03:31.970Z,9.30
2023-05-14T02:06:01.056Z,13.20
2023-05-14T02:08:29.418Z,14.60
2023-05-14T02:10:57.708Z,14.30
2023-05-14T02:13:26.614Z,12.70
2023-05-14T02:15:55.016Z,12.90
2023-05-14T02:18:23.358Z,10.70
2023-05-14T02:20:51.524Z,11.90
2023-05-14T02:23:25.690Z,10.30
2023-05-14T02:25:59.448Z,11.60
2023-05-14T02:28:27.637Z,12.80
2023-05-14T02:31:00.831Z,12.30
2023-05-14T02:33:29.113Z,12.70
2023-05-14T02:35:57.372Z,17.90
2023-05-14T02:38:26.970Z,13.00
2023-05-14T02:40:57.399Z,16.80
2023-05-14T02:43:25.444Z,14.00
2023-05-14T02:45:53.861Z,12.40
2023-05-14T02:48:22.543Z,11.30
2023-05-14T02:50:52.168Z,13.20
2023-05-14T02:53:20.531Z,15.40
2023-05-14T02:55:48.703Z,15.00
2023-05-14T02:58:17.076Z,13.60
2023-05-14T03:00:45.382Z,16.30
2023-05-14T03:03:14.266Z,17.50
2023-05-14T03:05:42.834Z,13.40
2023-05-14T03:08:10.904Z,14.30
2023-05-14T03:10:38.973Z,14.70
2023-05-14T03:13:07.370Z,13.80
2023-05-14T03:15:36.018Z,15.00
2023-05-14T03:18:05.184Z,10.60
2023-05-14T03:20:33.303Z,12.10
2023-05-14T03:23:02.000Z,10.10
2023-05-14T03:25:30.073Z,11.10
2023-05-14T03:27:59.488Z,11.10
2023-05-14T03:30:27.814Z,9.30
2023-05-14T03:32:57.719Z,15.50
2023-05-14T03:35:26.036Z,9.00
2023-05-14T03:37:54.215Z,9.80
2023-05-14T03:40:22.416Z,11.30
2023-05-14T03:42:51.690Z,10.20
2023-05-14T03:45:19.966Z,11.10
2023-05-14T03:47:48.206Z,13.10
2023-05-14T03:50:16.739Z,7.90
2023-05-14T03:52:46.122Z,12.30
2023-05-14T03:55:14.302Z,9.80
2023-05-14T03:57:44.219Z,11.80
2023-05-14T04:00:13.313Z,11.20
2023-05-14T04:02:47.571Z,10.70
2023-05-14T04:05:17.042Z,13.30
2023-05-14T04:07:46.218Z,11.40
2023-05-14T04:10:14.406Z,8.40
2023-05-14T04:12:43.093Z,9.30
2023-05-14T04:15:12.521Z,7.70
2023-05-14T04:17:40.887Z,9.10
2023-05-14T04:20:09.899Z,9.20
2023-05-14T04:22:38.163Z,7.80
2023-05-14T04:25:07.820Z,8.00
2023-05-14T04:30:05.019Z,10.90
2023-05-14T04:32:33.219Z,8.90
2023-05-14T04:35:01.270Z,10.60
2023-05-14T04:37:29.651Z,7.30
2023-05-14T04:39:57.821Z,7.30
2023-05-14T04:42:25.992Z,7.40
2023-05-14T04:44:54.265Z,6.90
2023-05-14T04:47:22.778Z,9.80
2023-05-14T04:49:51.027Z,6.80
2023-05-14T04:52:19.306Z,8.10
2023-05-14T04:54:47.640Z,8.00
2023-05-14T04:57:17.183Z,10.40
2023-05-14T05:02:13.537Z,6.30
2023-05-14T05:04:41.705Z,11.30
2023-05-14T05:07:09.994Z,6.50
2023-05-14T05:09:38.158Z,6.00
2023-05-14T05:12:06.945Z,7.80
2023-05-14T05:14:35.133Z,6.10
2023-05-14T05:17:04.026Z,5.90
2023-05-14T05:19:42.372Z,5.80
2023-05-14T05:22:12.461Z,5.40
2023-05-14T05:24:40.632Z,4.50
2023-05-14T05:27:08.811Z,6.00
2023-05-14T05:29:37.282Z,5.60
2023-05-14T05:32:06.276Z,6.40
2023-05-14T05:34:35.071Z,6.20
2023-05-14T05:37:03.438Z,4.60
2023-05-14T05:39:35.215Z,5.10
2023-05-14T05:42:05.553Z,4.50
2023-05-14T05:44:33.696Z,5.90
2023-05-14T05:47:02.256Z,5.60
2023-05-14T05:49:30.753Z,6.10
2023-05-14T05:51:59.040Z,6.20
2023-05-14T05:54:27.417Z,5.90
2023-05-14T05:56:55.587Z,6.00
2023-05-14T05:59:24.479Z,7.60
2023-05-14T06:01:52.919Z,9.30
2023-05-14T06:04:21.682Z,5.10
2023-05-14T06:06:49.832Z,3.60
2023-05-14T06:09:18.100Z,5.30
2023-05-14T06:11:46.267Z,5.90
2023-05-14T06:14:14.343Z,6.70
2023-05-14T06:16:42.432Z,6.00
2023-05-14T06:19:11.542Z,4.70
2023-05-14T06:21:39.783Z,5.60
2023-05-14T06:24:08.373Z,5.10
2023-05-14T06:26:36.651Z,5.80
2023-05-14T06:29:04.719Z,7.60
2023-05-14T06:31:32.814Z,6.30
2023-05-14T06:34:01.070Z,7.10
2023-05-14T06:36:29.140Z,5.20
2023-05-14T06:38:57.208Z,4.90
2023-05-14T06:41:25.279Z,6.10
2023-05-14T06:43:53.436Z,7.50
2023-05-14T06:46:21.732Z,4.50
2023-05-14T06:48:49.927Z,5.20
2023-05-14T06:51:18.385Z,4.50
2023-05-14T06:53:47.898Z,5.60
2023-05-14T06:56:16.067Z,5.10
2023-05-14T06:58:44.133Z,3.80
2023-05-14T07:01:12.419Z,6.40
2023-05-14T07:03:40.692Z,5.10
2023-05-14T07:06:08.893Z,5.30
2023-05-14T07:08:37.030Z,4.50
2023-05-14T07:11:05.338Z,4.20
2023-05-14T07:13:33.610Z,7.40
2023-05-14T07:16:01.972Z,5.50
2023-05-14T07:18:30.499Z,4.70
2023-05-14T07:20:58.831Z,8.70
2023-05-14T07:23:27.007Z,6.20
2023-05-14T07:25:55.389Z,5.70
2023-05-14T07:28:23.563Z,5.40
2023-05-14T07:30:51.802Z,4.90
2023-05-14T07:33:20.014Z,4.40
2023-05-14T07:35:48.203Z,6.20
2023-05-14T07:38:17.276Z,6.30
2023-05-14T07:40:45.866Z,4.90
2023-05-14T07:43:14.462Z,17.50
2023-05-14T07:45:42.844Z,5.80
2023-05-14T07:48:11.548Z,6.30
2023-05-14T07:50:39.900Z,7.60
2023-05-14T07:53:08.593Z,5.60
2023-05-14T07:55:37.159Z,4.50
2023-05-14T08:00:33.607Z,7.50
2023-05-14T08:03:01.819Z,7.40
2023-05-14T08:05:30.169Z,10.10
2023-05-14T08:07:58.168Z,5.20
2023-05-14T08:10:27.344Z,8.20
2023-05-14T08:12:55.833Z,4.60
2023-05-14T08:15:27.082Z,7.10
2023-05-14T08:17:56.619Z,5.20
2023-05-14T08:20:24.928Z,8.30
2023-05-14T08:22:53.321Z,7.00
2023-05-14T08:25:21.400Z,5.40
2023-05-14T08:27:49.569Z,6.00
2023-05-14T08:30:18.264Z,5.70
2023-05-14T08:32:46.364Z,5.10
2023-05-14T08:35:14.508Z,8.80
2023-05-14T08:37:42.581Z,4.70
2023-05-14T08:40:11.981Z,6.00
2023-05-14T08:42:45.261Z,6.30
2023-05-14T08:45:22.119Z,4.80
2023-05-14T08:47:51.919Z,5.70
2023-05-14T08:50:23.661Z,10.10
2023-05-14T08:52:53.128Z,6.90
2023-05-14T08:55:21.407Z,6.90
2023-05-14T08:57:50.300Z,14.40
2023-05-14T09:00:18.903Z,3.90
2023-05-14T09:02:48.822Z,6.00
2023-05-14T09:05:19.052Z,3.80
2023-05-14T09:07:47.079Z,6.70
2023-05-14T09:10:16.283Z,5.10
2023-05-14T09:12:44.655Z,5.80
2023-05-14T09:15:13.147Z,6.70
2023-05-14T09:17:41.686Z,5.80
2023-05-14T09:20:13.116Z,5.60
2023-05-14T09:22:42.274Z,7.70
2023-05-14T09:25:12.551Z,4.30
2023-05-14T09:27:40.771Z,4.80
2023-05-14T09:30:13.529Z,8.90
2023-05-14T09:32:44.261Z,4.30
2023-05-14T09:35:19.284Z,5.50
2023-05-14T09:37:53.029Z,5.90
2023-05-14T09:40:24.378Z,4.50
2023-05-14T09:42:53.264Z,7.50
2023-05-14T09:45:21.344Z,7.40
2023-05-14T09:47:49.801Z,4.20
2023-05-14T09:50:18.096Z,6.10
2023-05-14T09:52:46.170Z,6.00
2023-05-14T09:55:15.166Z,7.30
2023-05-14T09:57:43.353Z,6.30
2023-05-14T10:00:12.945Z,6.20
2023-05-14T10:02:43.490Z,5.80
2023-05-14T10:05:13.380Z,9.90
2023-05-14T10:07:47.918Z,4.50
2023-05-14T10:10:19.360Z,6.00
2023-05-14T10:12:58.328Z,4.90
2023-05-14T10:15:51.867Z,4.90
2023-05-14T10:18:23.761Z,3.70
2023-05-14T10:21:06.737Z,5.00
2023-05-14T10:23:38.151Z,10.50
2023-05-14T10:26:07.074Z,7.60
2023-05-14T10:31:04.116Z,5.30
2023-05-14T10:33:47.402Z,4.60
2023-05-14T10:36:15.868Z,7.50
2023-05-14T10:38:44.431Z,5.00
2023-05-14T10:41:18.124Z,9.50
2023-05-14T10:43:46.314Z,7.10
2023-05-14T10:46:15.258Z,9.10
2023-05-14T10:48:44.708Z,13.90
2023-05-14T10:51:13.282Z,9.20
2023-05-14T10:56:13.029Z,12.90
2023-05-14T10:58:45.230Z,4.70
2023-05-14T11:01:14.467Z,6.90
2023-05-14T11:03:45.549Z,4.00
2023-05-14T11:06:15.878Z,4.30
2023-05-14T11:08:44.784Z,3.60
2023-05-14T11:11:13.352Z,4.10
2023-05-14T11:13:41.767Z,3.40
2023-05-14T11:18:42.250Z,7.10
2023-05-14T11:21:10.569Z,4.10
2023-05-14T11:23:39.127Z,6.00
2023-05-14T11:26:07.519Z,4.90
2023-05-14T11:28:36.591Z,4.90
2023-05-14T11:31:05.908Z,3.00
2023-05-14T11:33:34.173Z,5.30
2023-05-14T11:36:02.664Z,5.80
2023-05-14T11:38:30.840Z,3.60
2023-05-14T11:40:59.832Z,4.80
2023-05-14T11:43:31.505Z,2.80
2023-05-14T11:45:59.598Z,4.70
2023-05-14T11:48:28.135Z,4.80
2023-05-14T11:50:56.180Z,7.10
2023-05-14T11:53:30.171Z,6.50
2023-05-14T11:55:58.416Z,4.40
2023-05-14T11:58:26.767Z,3.80
2023-05-14T12:00:56.081Z,4.00
2023-05-14T12:03:30.138Z,7.50
2023-05-14T12:06:00.310Z,4.60
2023-05-14T12:08:30.947Z,4.50
2023-05-14T12:11:00.806Z,5.20
2023-05-14T12:13:33.041Z,4.10
2023-05-14T12:16:02.552Z,4.10
2023-05-14T12:18:32.591Z,5.30
2023-05-14T12:21:06.044Z,5.30
2023-05-14T12:23:34.314Z,3.80
2023-05-14T12:26:04.315Z,3.80
2023-05-14T12:28:34.295Z,4.20
2023-05-14T12:31:04.638Z,5.10
2023-05-14T12:33:33.054Z,12.30
2023-05-14T12:36:20.459Z,8.00
2023-05-14T12:38:50.968Z,6.30
2023-05-14T12:41:19.185Z,5.40
2023-05-14T12:43:48.288Z,4.70
2023-05-14T12:46:17.411Z,3.90
2023-05-14T12:48:46.502Z,5.90
2023-05-14T12:51:15.258Z,8.00
2023-05-14T12:53:43.460Z,4.30
2023-05-14T12:56:13.035Z,7.00
2023-05-14T12:58:41.627Z,4.90
2023-05-14T13:01:10.625Z,8.40
2023-05-14T13:03:38.886Z,6.40
2023-05-14T13:06:08.097Z,4.50
2023-05-14T13:08:36.258Z,5.50
2023-05-14T13:11:04.444Z,7.60
2023-05-14T13:13:32.919Z,8.90
2023-05-14T13:16:01.195Z,7.50
2023-05-14T13:18:29.362Z,4.70
2023-05-14T13:20:57.639Z,6.70
2023-05-14T13:23:26.037Z,7.60
2023-05-14T13:25:54.196Z,5.70
2023-05-14T13:28:22.474Z,3.40
2023-05-14T13:31:08.120Z,4.50
2023-05-14T13:33:38.181Z,5.30
2023-05-14T13:36:07.170Z,5.80
2023-05-14T13:41:04.086Z,6.20
2023-05-14T13:43:36.128Z,5.10
2023-05-14T13:46:06.917Z,5.00
2023-05-14T13:48:37.283Z,5.00
2023-05-14T13:51:05.536Z,5.00
2023-05-14T13:53:33.709Z,3.90
2023-05-14T13:56:02.086Z,5.10
2023-05-14T13:58:30.403Z,4.00
2023-05-14T14:00:59.050Z,4.50
2023-05-14T14:03:27.119Z,4.00
2023-05-14T14:05:55.517Z,5.30
2023-05-14T14:08:24.521Z,4.50
2023-05-14T14:10:55.589Z,5.00
2023-05-14T14:13:24.615Z,4.50
2023-05-14T14:15:52.976Z,6.70
2023-05-14T14:18:21.185Z,3.80
2023-05-14T14:20:49.271Z,6.40
2023-05-14T14:23:17.546Z,5.80
2023-05-14T14:25:45.717Z,4.70
2023-05-14T14:28:14.111Z,5.40
2023-05-14T14:30:43.916Z,6.40
2023-05-14T14:33:12.073Z,5.30
2023-05-14T14:35:40.248Z,5.80
2023-05-14T14:38:08.520Z,4.00
2023-05-14T14:40:36.694Z,4.70
2023-05-14T14:43:04.875Z,4.70
2023-05-14T14:45:32.994Z,5.60
2023-05-14T14:48:26.211Z,4.20
2023-05-14T14:50:55.956Z,5.70
2023-05-14T14:53:25.120Z,4.40
2023-05-14T14:58:22.091Z,4.70
2023-05-14T15:00:52.262Z,6.00
2023-05-14T15:03:21.432Z,4.20
2023-05-14T15:05:51.314Z,6.50
2023-05-14T15:08:20.913Z,8.80
2023-05-14T15:10:48.994Z,7.10
2023-05-14T15:13:17.789Z,15.90
2023-05-14T15:15:45.955Z,14.80
2023-05-14T15:18:14.152Z,6.90
2023-05-14T15:20:42.713Z,12.90
2023-05-14T15:23:11.828Z,14.50
2023-05-14T15:25:40.081Z,11.70
2023-05-14T15:28:08.260Z,37.20
2023-05-14T15:30:36.539Z,20.40
2023-05-14T15:33:07.952Z,30.00
2023-05-14T15:35:36.882Z,20.00
2023-05-14T15:38:05.169Z,23.00
2023-05-14T15:40:35.171Z,16.20
2023-05-14T15:43:03.412Z,23.80
2023-05-14T15:45:31.634Z,15.80
2023-05-14T15:47:59.932Z,7.30
2023-05-14T15:50:28.382Z,4.70
2023-05-14T15:52:56.767Z,6.20
2023-05-14T15:55:24.934Z,6.70
2023-05-14T15:57:53.113Z,6.60
2023-05-14T16:00:21.868Z,10.90
2023-05-14T16:02:50.636Z,6.00
2023-05-14T16:05:19.377Z,8.90
2023-05-14T16:07:47.651Z,9.70
2023-05-14T16:10:15.773Z,8.00
2023-05-14T16:12:44.097Z,9.40
2023-05-14T16:15:12.164Z,10.20
2023-05-14T16:17:41.129Z,15.70
2023-05-14T16:20:09.960Z,13.60
2023-05-14T16:22:38.128Z,25.30
2023-05-14T16:25:06.923Z,13.90
2023-05-14T16:27:35.595Z,14.70
2023-05-14T16:30:04.556Z,23.00
2023-05-14T16:32:33.908Z,33.40
2023-05-14T16:35:03.138Z,41.30
2023-05-14T16:39:59.436Z,21.10
2023-05-14T16:42:27.824Z,16.00
2023-05-14T16:44:56.094Z,19.90
2023-05-14T16:47:24.270Z,25.50
2023-05-14T16:49:52.435Z,19.30
2023-05-14T16:52:20.479Z,14.70
2023-05-14T16:54:48.574Z,17.40
2023-05-14T16:57:16.748Z,22.80
2023-05-14T16:59:44.835Z,20.60
2023-05-14T17:02:12.996Z,26.10
2023-05-14T17:04:42.382Z,21.50
2023-05-14T17:07:11.827Z,18.80
2023-05-14T17:09:39.978Z,17.40
2023-05-14T17:12:09.737Z,22.10
2023-05-14T17:14:37.852Z,29.50
2023-05-14T17:17:06.240Z,27.00
2023-05-14T17:19:34.410Z,20.50
2023-05-14T17:22:05.964Z,24.70
2023-05-14T17:24:35.676Z,25.30
2023-05-14T17:29:32.425Z,13.80
2023-05-14T17:32:00.786Z,22.90
2023-05-14T17:34:28.991Z,24.10
2023-05-14T17:36:57.504Z,23.50
2023-05-14T17:39:25.640Z,25.60
2023-05-14T17:41:53.813Z,28.00
2023-05-14T17:44:22.090Z,32.70
2023-05-14T17:46:50.602Z,30.80
2023-05-14T17:49:18.956Z,24.00
2023-05-14T17:51:47.136Z,33.00
2023-05-14T17:54:15.305Z,26.70
2023-05-14T17:56:43.490Z,18.70
2023-05-14T17:59:11.672Z,21.20
2023-05-14T18:01:39.832Z,20.20
2023-05-14T18:04:08.109Z,21.70
2023-05-14T18:06:36.493Z,36.40
2023-05-14T18:09:04.800Z,24.30
2023-05-14T18:11:34.186Z,27.90
2023-05-14T18:16:31.592Z,37.50
2023-05-14T18:19:02.755Z,21.80
2023-05-14T18:21:31.091Z,19.20
2023-05-14T18:23:59.258Z,18.10
2023-05-14T18:26:27.416Z,23.90
2023-05-14T18:28:55.596Z,39.40
2023-05-14T18:31:23.895Z,34.30
2023-05-14T18:33:52.045Z,23.90
2023-05-14T18:36:20.222Z,23.00
2023-05-14T18:38:48.334Z,15.90
2023-05-14T18:41:16.459Z,14.90
2023-05-14T18:43:44.851Z,17.90
2023-05-14T18:46:13.080Z,32.90
2023-05-14T18:48:41.601Z,40.40
2023-05-14T18:51:11.411Z,28.20
2023-05-14T18:53:39.476Z,29.70
2023-05-14T18:56:09.661Z,26.70
2023-05-14T18:58:37.996Z,27.20
2023-05-14T19:01:06.181Z,29.10
2023-05-14T19:03:34.422Z,29.90
2023-05-14T19:06:02.918Z,21.90
2023-05-14T19:08:30.988Z,24.10
2023-05-14T19:10:59.057Z,23.00
2023-05-14T19:13:28.865Z,22.90
2023-05-14T19:15:57.070Z,17.00
2023-05-14T19:18:25.527Z,20.50
2023-05-14T19:20:53.798Z,23.40
2023-05-14T19:23:21.975Z,25.50
2023-05-14T19:25:50.370Z,45.70
2023-05-14T19:28:20.064Z,30.40
2023-05-14T19:35:44.586Z,30.10
2023-05-14T19:38:13.267Z,27.90
2023-05-14T19:40:43.039Z,34.70
2023-05-14T19:43:12.694Z,34.50
2023-05-14T19:45:42.894Z,31.50
2023-05-14T19:48:12.756Z,30.10
2023-05-14T19:50:41.715Z,27.70
2023-05-14T19:53:09.890Z,29.20
2023-05-14T19:55:38.067Z,28.50
2023-05-14T19:58:06.358Z,29.20
2023-05-14T20:00:34.720Z,26.00
2023-05-14T20:03:04.135Z,26.20
2023-05-14T20:08:06.622Z,23.00
2023-05-14T20:10:34.893Z,25.40
2023-05-14T20:13:03.502Z,23.30
2023-05-14T20:15:31.554Z,22.70
2023-05-14T20:17:59.757Z,32.70
2023-05-14T20:20:29.678Z,31.90
2023-05-14T20:23:00.484Z,34.40
2023-05-14T20:25:28.945Z,36.50
2023-05-14T20:27:57.125Z,33.00
2023-05-14T20:30:25.445Z,31.20
2023-05-14T20:32:54.166Z,32.60
2023-05-14T20:35:22.493Z,33.00
2023-05-14T20:37:51.373Z,27.40
2023-05-14T20:40:19.693Z,35.10
2023-05-14T20:42:50.511Z,56.90
2023-05-14T20:45:18.972Z,60.90
2023-05-14T20:47:47.348Z,49.00
2023-05-14T20:50:15.511Z,56.00
2023-05-14T20:52:43.994Z,34.00
2023-05-14T20:55:13.199Z,31.30
2023-05-14T20:57:41.365Z,26.70
2023-05-14T21:00:12.715Z,24.00
2023-05-14T21:02:40.962Z,25.80
2023-05-14T21:05:09.672Z,23.00
2023-05-14T21:07:39.408Z,28.70
2023-05-14T21:10:09.490Z,23.50
2023-05-14T21:12:37.688Z,28.10
2023-05-14T21:15:06.465Z,23.30
2023-05-14T21:17:34.671Z,24.60
2023-05-14T21:20:03.537Z,22.70
2023-05-14T21:22:31.712Z,23.60
2023-05-14T21:24:59.885Z,19.20
2023-05-14T21:27:28.056Z,17.70
2023-05-14T21:29:56.232Z,17.30
2023-05-14T21:32:24.451Z,19.30
2023-05-14T21:34:52.680Z,17.70
2023-05-14T21:37:22.401Z,17.70
2023-05-14T21:39:51.087Z,17.80
2023-05-14T21:42:21.168Z,26.40
2023-05-14T21:44:49.390Z,17.60
2023-05-14T21:47:17.961Z,20.80
2023-05-14T21:49:46.042Z,18.40
2023-05-14T21:52:14.407Z,17.40
2023-05-14T21:54:42.584Z,19.10
2023-05-14T21:57:10.754Z,17.10
2023-05-14T21:59:38.936Z,16.00
2023-05-14T22:02:08.000Z,16.80
2023-05-14T22:04:36.508Z,18.30
2023-05-14T22:07:05.197Z,23.50
2023-05-14T22:09:33.472Z,14.90
2023-05-14T22:12:01.548Z,14.60
2023-05-14T22:14:29.810Z,12.90
2023-05-14T22:16:57.949Z,15.60
2023-05-14T22:19:27.091Z,12.90
2023-05-14T22:21:55.176Z,12.60
2023-05-14T22:24:23.334Z,11.40
2023-05-14T22:26:51.612Z,16.70
2023-05-14T22:29:19.687Z,14.70
2023-05-14T22:31:47.980Z,17.10
2023-05-14T22:34:16.447Z,13.30
2023-05-14T22:36:44.502Z,14.00
2023-05-14T22:39:13.589Z,12.40
2023-05-14T22:41:41.985Z,14.50
2023-05-14T22:44:10.058Z,12.90
2023-05-14T22:46:38.187Z,15.60
2023-05-14T22:49:06.601Z,10.30
2023-05-14T22:51:34.693Z,12.70
2023-05-14T22:54:02.754Z,12.10
2023-05-14T22:56:31.147Z,12.90
2023-05-14T22:59:02.184Z,13.10
2023-05-14T23:01:32.138Z,12.30
2023-05-14T23:04:00.399Z,12.30
2023-05-14T23:06:30.194Z,13.90
2023-05-14T23:08:58.639Z,13.30
2023-05-14T23:11:27.096Z,11.10
2023-05-14T23:13:55.946Z,13.20
2023-05-14T23:16:24.614Z,13.50
2023-05-14T23:18:53.016Z,12.90
2023-05-14T23:21:21.265Z,20.00
2023-05-14T23:23:49.338Z,14.60
2023-05-14T23:26:17.421Z,16.80
2023-05-14T23:28:47.511Z,15.10
2023-05-14T23:31:15.716Z,19.10
2023-05-14T23:33:44.919Z,13.10
2023-05-14T23:36:13.387Z,12.40
2023-05-14T23:38:41.968Z,14.70
2023-05-14T23:41:10.036Z,13.00
2023-05-14T23:43:38.211Z,11.70
2023-05-14T23:46:06.629Z,14.90
2023-05-14T23:48:35.176Z,14.70
2023-05-14T23:51:03.352Z,15.60
2023-05-14T23:53:31.525Z,14.80
2023-05-14T23:55:59.808Z,14.90
2023-05-14T23:58:30.225Z,14.00
